createdAt,value
2023-03-17T00:00:52.181Z,6.40
2023-03-17T00:03:25.571Z,6.34
2023-03-17T00:05:56.771Z,6.43
2023-03-17T00:08:28.415Z,6.40
2023-03-17T00:11:00.497Z,6.41
2023-03-17T00:13:31.102Z,6.35
2023-03-17T00:16:04.400Z,6.40
2023-03-17T00:18:35.545Z,6.51
2023-03-17T00:21:04.916Z,6.45
2023-03-17T00:23:35.300Z,6.42
2023-03-17T00:26:07.477Z,6.36
2023-03-17T00:28:37.314Z,6.31
2023-03-17T00:31:16.701Z,6.37
2023-03-17T00:33:48.055Z,6.31
2023-03-17T00:36:20.497Z,6.31
2023-03-17T00:38:49.912Z,6.26
2023-03-17T00:41:22.389Z,6.27
2023-03-17T00:43:52.176Z,6.29
2023-03-17T00:46:27.521Z,6.25
2023-03-17T00:48:57.945Z,6.21
2023-03-17T00:51:27.214Z,6.29
2023-03-17T00:53:57.033Z,6.23
2023-03-17T00:56:28.935Z,6.35
2023-03-17T00:58:58.254Z,6.34
2023-03-17T01:01:28.288Z,6.34
2023-03-17T01:03:57.547Z,6.34
2023-03-17T01:06:26.956Z,6.29
2023-03-17T01:08:58.212Z,6.37
2023-03-17T01:11:30.110Z,6.33
2023-03-17T01:13:59.539Z,6.26
2023-03-17T01:16:29.054Z,6.28
2023-03-17T01:18:58.789Z,6.28
2023-03-17T01:21:28.208Z,6.34
2023-03-17T01:23:57.661Z,6.35
2023-03-17T01:26:26.975Z,6.41
2023-03-17T01:28:58.917Z,6.26
2023-03-17T01:31:28.690Z,6.20
2023-03-17T01:33:57.980Z,6.33
2023-03-17T01:36:27.265Z,6.23
2023-03-17T01:38:57.276Z,6.31
2023-03-17T01:41:26.596Z,6.30
2023-03-17T01:43:55.815Z,6.31
2023-03-17T01:46:31.391Z,6.20
2023-03-17T01:49:09.472Z,6.33
2023-03-17T01:51:44.871Z,6.26
2023-03-17T01:54:19.602Z,6.17
2023-03-17T01:56:53.234Z,6.20
2023-03-17T01:59:28.713Z,6.12
2023-03-17T02:02:05.484Z,6.12
2023-03-17T02:04:36.450Z,6.07
2023-03-17T02:07:06.434Z,6.13
2023-03-17T02:09:36.939Z,6.06
2023-03-17T02:12:10.587Z,6.00
2023-03-17T02:14:39.805Z,5.98
2023-03-17T02:17:12.088Z,5.98
2023-03-17T02:19:42.019Z,5.96
2023-03-17T02:22:14.174Z,5.96
2023-03-17T02:24:47.064Z,6.02
2023-03-17T02:27:19.740Z,6.11
2023-03-17T02:29:50.670Z,6.02
2023-03-17T02:32:22.029Z,5.96
2023-03-17T02:34:52.152Z,5.99
2023-03-17T02:37:24.144Z,5.97
2023-03-17T02:39:53.737Z,5.96
2023-03-17T02:42:23.346Z,5.99
2023-03-17T02:44:52.639Z,5.91
2023-03-17T02:47:22.542Z,5.84
2023-03-17T02:49:52.296Z,5.84
2023-03-17T02:52:24.100Z,5.88
2023-03-17T02:54:53.672Z,5.80
2023-03-17T02:57:22.911Z,5.87
2023-03-17T02:59:52.416Z,5.87
2023-03-17T03:02:21.792Z,5.76
2023-03-17T03:04:51.174Z,5.83
2023-03-17T03:07:20.415Z,5.92
2023-03-17T03:09:52.212Z,5.95
2023-03-17T03:12:21.406Z,5.93
2023-03-17T03:14:50.622Z,5.92
2023-03-17T03:17:20.275Z,5.89
2023-03-17T03:19:50.500Z,5.87
2023-03-17T03:22:19.745Z,5.84
2023-03-17T03:24:51.540Z,5.85
2023-03-17T03:27:20.756Z,5.81
2023-03-17T03:29:50.058Z,5.80
2023-03-17T03:32:19.299Z,5.84
2023-03-17T03:34:48.561Z,5.86
2023-03-17T03:37:18.096Z,5.77
2023-03-17T03:39:47.726Z,5.81
2023-03-17T03:42:19.722Z,5.80
2023-03-17T03:44:48.936Z,5.65
2023-03-17T03:47:18.139Z,5.79
2023-03-17T03:49:47.430Z,5.73
2023-03-17T03:52:16.662Z,5.70
2023-03-17T03:54:45.882Z,5.71
2023-03-17T03:57:15.440Z,5.65
2023-03-17T03:59:47.210Z,5.71
2023-03-17T04:02:17.087Z,5.56
2023-03-17T04:04:47.049Z,5.69
2023-03-17T04:07:16.678Z,5.61
2023-03-17T04:09:45.923Z,5.74
2023-03-17T04:12:15.354Z,5.60
2023-03-17T04:14:47.362Z,5.56
2023-03-17T04:17:16.893Z,5.58
2023-03-17T04:19:46.436Z,5.63
2023-03-17T04:22:16.443Z,5.51
2023-03-17T04:24:46.017Z,5.58
2023-03-17T04:27:15.538Z,5.56
2023-03-17T04:29:47.619Z,5.61
2023-03-17T04:32:17.719Z,5.52
2023-03-17T04:34:47.054Z,5.48
2023-03-17T04:37:16.711Z,5.49
2023-03-17T04:39:46.346Z,5.51
2023-03-17T04:42:15.957Z,5.55
2023-03-17T04:44:47.749Z,5.73
2023-03-17T04:47:17.162Z,5.57
2023-03-17T04:49:46.562Z,5.54
2023-03-17T04:52:15.991Z,5.47
2023-03-17T04:54:47.776Z,5.41
2023-03-17T04:57:17.024Z,5.60
2023-03-17T04:59:48.964Z,5.42
2023-03-17T05:02:18.481Z,5.68
2023-03-17T05:04:49.524Z,5.49
2023-03-17T05:07:18.812Z,5.45
2023-03-17T05:09:48.174Z,5.43
2023-03-17T05:12:18.021Z,5.39
2023-03-17T05:14:49.868Z,5.30
2023-03-17T05:17:19.148Z,5.18
2023-03-17T05:19:48.361Z,5.27
2023-03-17T05:22:17.617Z,5.19
2023-03-17T05:24:47.650Z,5.28
2023-03-17T05:27:16.999Z,5.22
2023-03-17T05:29:46.279Z,5.16
2023-03-17T05:32:18.351Z,5.21
2023-03-17T05:34:47.891Z,5.14
2023-03-17T05:37:17.501Z,5.17
2023-03-17T05:39:46.960Z,5.16
2023-03-17T05:42:16.384Z,5.03
2023-03-17T05:44:45.619Z,5.18
2023-03-17T05:47:14.976Z,5.13
2023-03-17T05:49:46.891Z,5.13
2023-03-17T05:52:16.154Z,5.11
2023-03-17T05:54:47.970Z,5.06
2023-03-17T05:57:17.314Z,5.11
2023-03-17T05:59:46.904Z,5.16
2023-03-17T06:02:17.573Z,5.06
2023-03-17T06:04:49.759Z,5.11
2023-03-17T06:07:18.999Z,5.14
2023-03-17T06:09:48.193Z,5.05
2023-03-17T06:12:17.419Z,5.07
2023-03-17T06:14:46.667Z,5.17
2023-03-17T06:17:15.886Z,5.09
2023-03-17T06:19:46.430Z,5.11
2023-03-17T06:22:19.151Z,4.89
2023-03-17T06:24:48.384Z,5.05
2023-03-17T06:27:17.606Z,5.05
2023-03-17T06:29:47.492Z,5.10
2023-03-17T06:32:20.630Z,5.11
2023-03-17T06:34:50.195Z,5.08
2023-03-17T06:37:22.386Z,5.20
2023-03-17T06:39:51.897Z,5.14
2023-03-17T06:42:21.131Z,5.22
2023-03-17T06:44:52.470Z,5.23
2023-03-17T06:47:24.794Z,5.18
2023-03-17T06:49:56.022Z,5.25
2023-03-17T06:52:27.867Z,5.29
2023-03-17T06:54:57.201Z,5.39
2023-03-17T06:57:27.016Z,5.43
2023-03-17T06:59:56.678Z,5.42
2023-03-17T07:02:25.950Z,5.55
2023-03-17T07:04:57.774Z,5.54
2023-03-17T07:07:29.867Z,5.62
2023-03-17T07:09:59.520Z,5.55
2023-03-17T07:12:28.892Z,5.71
2023-03-17T07:14:58.170Z,5.69
2023-03-17T07:17:28.131Z,5.82
2023-03-17T07:19:57.388Z,5.84
2023-03-17T07:22:29.494Z,5.88
2023-03-17T07:24:58.927Z,6.03
2023-03-17T07:27:28.157Z,5.99
2023-03-17T07:29:57.388Z,6.07
2023-03-17T07:32:26.721Z,6.15
2023-03-17T07:34:56.117Z,6.17
2023-03-17T07:37:25.392Z,6.28
2023-03-17T07:39:57.266Z,6.38
2023-03-17T07:42:28.934Z,6.43
2023-03-17T07:44:58.165Z,6.58
2023-03-17T07:47:27.497Z,6.69
2023-03-17T07:49:57.331Z,6.66
2023-03-17T07:52:26.680Z,6.82
2023-03-17T07:54:58.516Z,7.00
2023-03-17T07:57:28.687Z,7.07
2023-03-17T07:59:57.890Z,7.22
2023-03-17T08:02:27.164Z,7.35
2023-03-17T08:04:56.988Z,7.52
2023-03-17T08:07:26.248Z,7.64
2023-03-17T08:09:58.117Z,7.82
2023-03-17T08:12:27.381Z,7.92
2023-03-17T08:14:56.642Z,8.06
2023-03-17T08:17:27.452Z,8.21
2023-03-17T08:19:56.711Z,8.31
2023-03-17T08:22:26.553Z,8.50
2023-03-17T08:24:58.615Z,8.54
2023-03-17T08:27:27.852Z,8.54
2023-03-17T08:29:57.067Z,8.68
2023-03-17T08:32:26.431Z,8.75
2023-03-17T08:34:56.664Z,8.91
2023-03-17T08:37:26.041Z,9.02
2023-03-17T08:39:57.884Z,8.94
2023-03-17T08:42:27.171Z,9.03
2023-03-17T08:44:56.379Z,9.10
2023-03-17T08:47:25.853Z,9.21
2023-03-17T08:49:56.259Z,9.29
2023-03-17T08:52:26.113Z,9.36
2023-03-17T08:54:58.284Z,9.43
2023-03-17T08:57:28.135Z,9.50
2023-03-17T08:59:57.534Z,9.73
2023-03-17T09:02:26.804Z,9.87
2023-03-17T09:04:56.004Z,9.91
2023-03-17T09:07:25.400Z,10.05
2023-03-17T09:09:54.619Z,10.12
2023-03-17T09:12:26.497Z,10.22
2023-03-17T09:14:56.115Z,10.25
2023-03-17T09:17:25.476Z,10.42
2023-03-17T09:19:54.708Z,10.39
2023-03-17T09:22:23.944Z,10.39
2023-03-17T09:24:53.271Z,10.39
2023-03-17T09:27:22.539Z,10.52
2023-03-17T09:29:54.362Z,10.63
2023-03-17T09:32:23.576Z,10.61
2023-03-17T09:34:53.220Z,10.84
2023-03-17T09:37:22.812Z,10.92
2023-03-17T09:39:52.666Z,11.05
2023-03-17T09:42:44.544Z,11.10
2023-03-17T09:45:25.631Z,11.21
2023-03-17T09:48:05.968Z,11.29
2023-03-17T09:50:41.843Z,11.44
2023-03-17T09:53:19.116Z,11.54
2023-03-17T09:55:52.881Z,11.49
2023-03-17T09:58:28.395Z,11.55
2023-03-17T10:01:00.724Z,11.59
2023-03-17T10:03:30.283Z,11.62
2023-03-17T10:06:17.291Z,11.72
2023-03-17T10:08:52.566Z,11.87
2023-03-17T10:11:32.851Z,11.76
2023-03-17T10:14:05.906Z,12.09
2023-03-17T10:16:46.345Z,12.11
2023-03-17T10:19:23.898Z,12.16
2023-03-17T10:21:58.865Z,12.24
2023-03-17T10:24:30.864Z,12.33
2023-03-17T10:27:03.809Z,12.23
2023-03-17T10:29:34.155Z,12.52
2023-03-17T10:32:06.166Z,12.66
2023-03-17T10:34:38.164Z,12.76
2023-03-17T10:37:09.719Z,12.89
2023-03-17T10:39:46.356Z,12.78
2023-03-17T10:42:22.756Z,12.83
2023-03-17T10:44:56.768Z,12.83
2023-03-17T10:47:33.790Z,12.75
2023-03-17T10:50:20.422Z,13.01
2023-03-17T10:52:52.161Z,13.01
2023-03-17T10:55:24.595Z,13.00
2023-03-17T10:57:57.204Z,13.05
2023-03-17T11:00:27.694Z,13.03
2023-03-17T11:03:02.368Z,13.13
2023-03-17T11:05:33.012Z,13.15
2023-03-17T11:08:11.461Z,13.34
2023-03-17T11:10:43.145Z,13.39
2023-03-17T11:13:12.977Z,13.51
2023-03-17T11:15:45.971Z,13.31
2023-03-17T11:18:23.604Z,13.51
2023-03-17T11:21:00.537Z,13.52
2023-03-17T11:23:48.714Z,13.73
2023-03-17T11:26:47.133Z,13.70
2023-03-17T11:29:24.480Z,13.55
2023-03-17T11:32:04.097Z,13.67
2023-03-17T11:34:53.925Z,13.92
2023-03-17T11:37:36.107Z,14.08
2023-03-17T11:40:14.602Z,14.02
2023-03-17T11:42:52.203Z,14.07
2023-03-17T11:45:29.303Z,14.10
2023-03-17T11:48:13.767Z,14.21
2023-03-17T11:50:55.105Z,14.21
2023-03-17T11:53:43.118Z,14.24
2023-03-17T11:56:19.804Z,14.40
2023-03-17T11:58:52.572Z,14.42
2023-03-17T12:01:27.213Z,14.32
2023-03-17T12:04:06.249Z,14.43
2023-03-17T12:06:43.189Z,14.60
2023-03-17T12:09:26.807Z,14.59
2023-03-17T12:11:58.401Z,14.66
2023-03-17T12:14:32.666Z,14.68
2023-03-17T12:17:07.755Z,14.83
2023-03-17T12:19:45.267Z,14.81
2023-03-17T12:22:26.602Z,14.88
2023-03-17T12:25:06.502Z,14.81
2023-03-17T12:27:43.877Z,15.05
2023-03-17T12:30:23.674Z,14.92
2023-03-17T12:32:58.840Z,15.07
2023-03-17T12:35:32.013Z,14.98
2023-03-17T12:38:08.035Z,14.97
2023-03-17T12:40:45.928Z,14.93
2023-03-17T12:43:37.129Z,14.95
2023-03-17T12:46:38.273Z,14.98
2023-03-17T12:49:36.052Z,15.22
2023-03-17T12:52:19.147Z,15.20
2023-03-17T12:54:54.085Z,15.15
2023-03-17T12:57:25.556Z,15.02
2023-03-17T13:00:02.322Z,15.12
2023-03-17T13:02:39.921Z,15.15
2023-03-17T13:05:11.904Z,15.27
2023-03-17T13:07:49.360Z,15.29
2023-03-17T13:10:40.756Z,15.20
2023-03-17T13:13:25.458Z,15.27
2023-03-17T13:16:03.794Z,15.32
2023-03-17T13:18:53.942Z,15.19
2023-03-17T13:21:29.627Z,15.27
2023-03-17T13:24:21.167Z,15.29
2023-03-17T13:27:01.680Z,15.26
2023-03-17T13:29:48.797Z,15.28
2023-03-17T13:32:40.869Z,15.34
2023-03-17T13:35:21.082Z,15.35
2023-03-17T13:38:10.082Z,15.36
2023-03-17T13:40:49.435Z,15.35
2023-03-17T13:43:44.110Z,15.28
2023-03-17T13:46:27.916Z,15.24
2023-03-17T13:48:59.072Z,15.21
2023-03-17T13:51:33.965Z,15.23
2023-03-17T13:54:11.586Z,15.36
2023-03-17T13:56:53.847Z,15.29
2023-03-17T13:59:37.794Z,15.31
2023-03-17T14:02:18.783Z,15.42
2023-03-17T14:04:54.478Z,15.40
2023-03-17T14:07:26.786Z,15.42
2023-03-17T14:10:01.429Z,15.36
2023-03-17T14:12:37.711Z,15.44
2023-03-17T14:15:16.472Z,15.46
2023-03-17T14:17:49.923Z,15.44
2023-03-17T14:20:24.922Z,15.42
2023-03-17T14:22:58.054Z,15.44
2023-03-17T14:25:29.974Z,15.45
2023-03-17T14:28:00.956Z,15.46
2023-03-17T14:30:35.125Z,15.47
2023-03-17T14:33:08.114Z,15.44
2023-03-17T14:35:41.945Z,15.41
2023-03-17T14:38:20.003Z,15.34
2023-03-17T14:40:49.761Z,15.32
2023-03-17T14:43:19.625Z,15.35
2023-03-17T14:45:55.444Z,15.29
2023-03-17T14:48:28.977Z,15.33
2023-03-17T14:51:05.259Z,15.32
2023-03-17T14:53:35.378Z,15.29
2023-03-17T14:56:05.802Z,15.24
2023-03-17T14:58:40.160Z,15.30
2023-03-17T15:01:18.355Z,15.35
2023-03-17T15:03:57.149Z,15.28
2023-03-17T15:06:29.651Z,15.21
2023-03-17T15:09:02.774Z,15.22
2023-03-17T15:11:41.399Z,15.18
2023-03-17T15:14:21.335Z,15.16
2023-03-17T15:16:55.759Z,15.14
2023-03-17T15:19:30.072Z,15.16
2023-03-17T15:22:00.568Z,15.13
2023-03-17T15:24:38.864Z,15.10
2023-03-17T15:27:09.866Z,15.11
2023-03-17T15:29:39.070Z,15.09
2023-03-17T15:32:20.110Z,15.05
2023-03-17T15:34:49.460Z,15.09
2023-03-17T15:37:21.387Z,15.11
2023-03-17T15:39:51.357Z,15.04
2023-03-17T15:42:22.300Z,15.02
2023-03-17T15:44:51.832Z,15.03
2023-03-17T15:47:25.549Z,15.05
2023-03-17T15:49:57.394Z,14.94
2023-03-17T15:52:28.781Z,14.98
2023-03-17T15:54:59.890Z,14.94
2023-03-17T15:57:31.975Z,14.95
2023-03-17T16:00:04.159Z,14.91
2023-03-17T16:02:38.454Z,14.94
2023-03-17T16:05:18.635Z,15.01
2023-03-17T16:07:47.857Z,14.98
2023-03-17T16:10:22.512Z,15.01
2023-03-17T16:12:52.829Z,14.95
2023-03-17T16:15:24.016Z,14.88
2023-03-17T16:17:58.377Z,14.80
2023-03-17T16:20:32.741Z,14.83
2023-03-17T16:23:08.630Z,14.71
2023-03-17T16:25:38.528Z,14.72
2023-03-17T16:28:17.699Z,14.58
2023-03-17T16:30:48.724Z,14.58
2023-03-17T16:33:22.892Z,14.70
2023-03-17T16:35:53.672Z,14.66
2023-03-17T16:38:24.933Z,14.61
2023-03-17T16:40:56.312Z,14.62
2023-03-17T16:43:28.505Z,14.68
2023-03-17T16:46:00.139Z,14.72
2023-03-17T16:48:33.195Z,14.71
2023-03-17T16:51:02.566Z,14.71
2023-03-17T16:53:31.947Z,14.73
2023-03-17T16:56:01.708Z,14.74
2023-03-17T16:58:33.717Z,14.74
2023-03-17T17:01:08.973Z,14.74
2023-03-17T17:03:40.934Z,14.66
2023-03-17T17:06:12.628Z,14.63
2023-03-17T17:08:41.849Z,14.70
2023-03-17T17:11:12.975Z,14.70
2023-03-17T17:13:55.309Z,14.66
2023-03-17T17:16:27.974Z,14.59
2023-03-17T17:19:03.223Z,14.61
2023-03-17T17:21:33.932Z,14.51
2023-03-17T17:24:04.254Z,14.47
2023-03-17T17:26:33.507Z,14.49
2023-03-17T17:29:03.187Z,14.33
2023-03-17T17:31:32.476Z,14.23
2023-03-17T17:34:04.334Z,14.38
2023-03-17T17:36:33.696Z,14.46
2023-03-17T17:39:03.104Z,14.40
2023-03-17T17:41:34.056Z,14.32
2023-03-17T17:44:03.450Z,14.27
2023-03-17T17:46:32.758Z,14.26
2023-03-17T17:49:05.263Z,14.19
2023-03-17T17:51:36.516Z,14.06
2023-03-17T17:54:05.959Z,13.96
2023-03-17T17:56:38.162Z,13.93
2023-03-17T17:59:08.079Z,13.94
2023-03-17T18:01:37.383Z,13.78
2023-03-17T18:04:09.747Z,13.86
2023-03-17T18:06:39.077Z,13.77
2023-03-17T18:09:08.867Z,13.84
2023-03-17T18:11:40.357Z,13.74
2023-03-17T18:14:10.322Z,13.70
2023-03-17T18:16:40.990Z,13.74
2023-03-17T18:19:15.259Z,13.63
2023-03-17T18:21:49.467Z,13.63
2023-03-17T18:24:19.467Z,13.62
2023-03-17T18:26:48.719Z,13.63
2023-03-17T18:29:17.948Z,13.54
2023-03-17T18:31:50.215Z,13.49
2023-03-17T18:34:25.989Z,13.51
2023-03-17T18:36:58.177Z,13.31
2023-03-17T18:39:27.566Z,13.19
2023-03-17T18:41:57.249Z,13.23
2023-03-17T18:44:26.566Z,13.25
2023-03-17T18:46:55.810Z,13.32
2023-03-17T18:49:28.347Z,13.39
2023-03-17T18:51:59.602Z,13.53
2023-03-17T18:54:31.682Z,13.63
2023-03-17T18:57:01.269Z,13.55
2023-03-17T18:59:30.522Z,13.61
2023-03-17T19:01:59.847Z,13.54
2023-03-17T19:04:31.987Z,13.63
2023-03-17T19:07:04.555Z,13.66
2023-03-17T19:09:33.821Z,13.55
2023-03-17T19:12:03.150Z,13.75
2023-03-17T19:14:33.124Z,13.54
2023-03-17T19:17:02.387Z,13.67
2023-03-17T19:19:35.411Z,13.56
2023-03-17T19:22:06.270Z,13.45
2023-03-17T19:24:38.934Z,13.31
2023-03-17T19:27:08.531Z,13.19
2023-03-17T19:29:37.821Z,12.98
2023-03-17T19:32:07.241Z,12.98
2023-03-17T19:34:39.311Z,12.97
2023-03-17T19:37:08.781Z,13.01
2023-03-17T19:39:38.245Z,13.13
2023-03-17T19:42:07.639Z,13.26
2023-03-17T19:44:36.959Z,13.34
2023-03-17T19:47:08.263Z,13.34
2023-03-17T19:49:42.067Z,13.48
2023-03-17T19:52:12.344Z,13.63
2023-03-17T19:54:45.870Z,13.69
2023-03-17T19:57:16.791Z,13.67
2023-03-17T19:59:46.234Z,13.80
2023-03-17T20:02:16.960Z,13.80
2023-03-17T20:04:48.904Z,13.82
2023-03-17T20:07:18.276Z,13.83
2023-03-17T20:09:48.518Z,13.84
2023-03-17T20:12:18.283Z,13.72
2023-03-17T20:14:47.656Z,13.79
2023-03-17T20:17:17.815Z,13.81
2023-03-17T20:19:49.666Z,13.76
2023-03-17T20:22:18.959Z,13.58
2023-03-17T20:24:48.335Z,13.54
2023-03-17T20:27:18.012Z,13.37
2023-03-17T20:29:48.616Z,13.13
2023-03-17T20:32:18.260Z,13.06
2023-03-17T20:34:50.802Z,12.90
2023-03-17T20:37:20.146Z,12.94
2023-03-17T20:39:49.567Z,12.99
2023-03-17T20:42:20.549Z,13.07
2023-03-17T20:44:52.998Z,13.12
2023-03-17T20:47:22.736Z,13.20
2023-03-17T20:49:57.887Z,13.11
2023-03-17T20:52:29.953Z,13.21
2023-03-17T20:55:00.179Z,13.10
2023-03-17T20:57:29.458Z,13.13
2023-03-17T20:59:58.807Z,13.00
2023-03-17T21:02:29.045Z,12.84
2023-03-17T21:05:00.972Z,12.81
2023-03-17T21:07:30.460Z,12.83
2023-03-17T21:10:02.085Z,12.84
2023-03-17T21:12:31.818Z,12.67
2023-03-17T21:15:02.071Z,12.73
2023-03-17T21:17:31.386Z,12.88
2023-03-17T21:20:04.008Z,12.95
2023-03-17T21:22:35.689Z,12.80
2023-03-17T21:25:05.269Z,12.82
2023-03-17T21:27:38.838Z,12.83
2023-03-17T21:30:12.610Z,12.88
2023-03-17T21:32:46.620Z,12.93
2023-03-17T21:35:18.796Z,12.85
2023-03-17T21:37:50.928Z,12.87
2023-03-17T21:40:21.579Z,12.81
2023-03-17T21:42:51.150Z,12.65
2023-03-17T21:45:20.608Z,12.71
2023-03-17T21:47:49.936Z,12.78
2023-03-17T21:50:23.130Z,12.71
2023-03-17T21:52:52.547Z,12.75
2023-03-17T21:55:21.847Z,12.65
2023-03-17T21:57:51.171Z,12.56
2023-03-17T22:00:23.568Z,12.43
2023-03-17T22:02:54.918Z,12.57
2023-03-17T22:05:27.090Z,12.77
2023-03-17T22:07:56.929Z,12.82
2023-03-17T22:10:27.169Z,12.93
2023-03-17T22:12:56.474Z,12.83
2023-03-17T22:15:25.849Z,12.63
2023-03-17T22:17:56.889Z,12.82
2023-03-17T22:20:30.162Z,12.93
2023-03-17T22:22:59.713Z,12.79
2023-03-17T22:25:29.125Z,12.78
2023-03-17T22:28:01.114Z,12.66
2023-03-17T22:30:31.474Z,12.68
2023-03-17T22:33:01.076Z,12.89
2023-03-17T22:35:34.025Z,12.58
2023-03-17T22:38:03.966Z,12.70
2023-03-17T22:40:33.512Z,12.56
2023-03-17T22:43:03.360Z,12.35
2023-03-17T22:45:32.622Z,12.59
2023-03-17T22:48:06.283Z,12.47
2023-03-17T22:50:38.242Z,12.54
2023-03-17T22:53:10.362Z,12.67
2023-03-17T22:55:39.605Z,12.76
2023-03-17T22:58:09.156Z,12.90
2023-03-17T23:00:38.675Z,13.01
2023-03-17T23:03:08.679Z,13.05
2023-03-17T23:05:41.549Z,13.12
2023-03-17T23:08:11.408Z,13.12
2023-03-17T23:10:44.582Z,13.20
2023-03-17T23:13:14.660Z,13.10
2023-03-17T23:15:44.157Z,12.66
2023-03-17T23:18:14.196Z,12.69
2023-03-17T23:20:46.565Z,12.83
2023-03-17T23:23:16.448Z,12.88
2023-03-17T23:25:46.149Z,12.75
2023-03-17T23:28:15.578Z,12.74
2023-03-17T23:30:45.752Z,12.74
2023-03-17T23:33:15.452Z,12.30
2023-03-17T23:35:47.377Z,12.15
2023-03-17T23:38:17.234Z,12.00
2023-03-17T23:40:46.735Z,11.82
2023-03-17T23:43:16.180Z,11.89
2023-03-17T23:45:45.609Z,11.90
2023-03-17T23:48:15.194Z,12.08
2023-03-17T23:50:47.092Z,11.94
2023-03-17T23:53:16.902Z,12.06
2023-03-17T23:55:46.832Z,12.01
2023-03-17T23:58:16.789Z,12.14
